Time;durP1;ratioP1;P1;durP2;ratioP2;P2;SDS_P1;SDS_P2;PMS_P1;PMS_P2;Temp;Humidity;BMP_temperature;BMP_pressure;BME280_temperature;BME280_humidity;BME280_pressure;Samples;Min_cycle;Max_cycle;Signal;HPM_P1;HPM_P2
2022/09/13 00:00:45;;;;;;;4.20;3.80;;;16.90;99.90;;;;;;5014245;28;20241;-54
2022/09/13 00:03:14;;;;;;;4.00;3.67;;;16.80;99.90;;;;;;5014349;28;20234;-54
2022/09/13 00:05:42;;;;;;;4.40;3.60;;;16.80;99.90;;;;;;5010212;28;20231;-54
2022/09/13 00:08:12;;;;;;;4.70;4.20;;;16.80;99.90;;;;;;4987090;28;20223;-53
2022/09/13 00:10:41;;;;;;;4.30;3.90;;;16.80;99.90;;;;;;4994862;28;20281;-53
2022/09/13 00:13:11;;;;;;;5.90;4.50;;;16.70;99.90;;;;;;4994900;28;20246;-53
2022/09/13 00:15:43;;;;;;;4.70;4.27;;;16.60;99.90;;;;;;4994725;28;20241;-54
2022/09/13 00:18:12;;;;;;;4.90;4.17;;;16.70;99.90;;;;;;4995416;28;20606;-53
2022/09/13 00:20:40;;;;;;;5.17;4.67;;;16.60;99.90;;;;;;4994498;28;20234;-53
2022/09/13 00:23:08;;;;;;;6.17;4.60;;;16.70;99.90;;;;;;5019861;28;20221;-53
2022/09/13 00:25:37;;;;;;;5.13;4.60;;;16.60;99.90;;;;;;4994777;28;20230;-54
2022/09/13 00:28:06;;;;;;;6.00;5.40;;;16.60;99.90;;;;;;4994931;28;20635;-54
2022/09/13 00:30:34;;;;;;;5.90;5.30;;;16.60;99.90;;;;;;4994554;28;20244;-53
2022/09/13 00:33:03;;;;;;;5.20;4.70;;;16.60;99.90;;;;;;4994577;28;20285;-54
2022/09/13 00:35:31;;;;;;;8.53;5.17;;;16.60;99.90;;;;;;4994263;28;20245;-53
2022/09/13 00:38:00;;;;;;;6.20;5.33;;;16.60;99.90;;;;;;4994290;28;20694;-54
2022/09/13 00:40:32;;;;;;;8.40;6.13;;;16.50;99.90;;;;;;4994408;28;20234;-53
2022/09/13 00:43:01;;;;;;;7.13;5.27;;;16.50;99.90;;;;;;4994678;28;20237;-53
2022/09/13 00:45:29;;;;;;;6.40;5.30;;;16.50;99.90;;;;;;4994106;28;20728;-54
2022/09/13 00:48:01;;;;;;;5.97;5.47;;;16.40;99.90;;;;;;4994741;28;20598;-54
2022/09/13 00:50:34;;;;;;;9.23;6.23;;;16.50;99.90;;;;;;4994207;28;20244;-54
2022/09/13 00:53:06;;;;;;;7.30;5.90;;;16.40;99.90;;;;;;5004932;28;20241;-53
2022/09/13 00:55:39;;;;;;;6.50;5.90;;;16.40;99.90;;;;;;5013548;28;20230;-53
2022/09/13 00:58:15;;;;;;;6.23;5.63;;;16.50;99.90;;;;;;5013971;28;20240;-53
2022/09/13 01:00:44;;;;;;;8.13;6.73;;;16.40;99.90;;;;;;5013217;28;20242;-53
2022/09/13 01:03:16;;;;;;;6.90;5.87;;;16.50;99.90;;;;;;5013923;28;20271;-52
2022/09/13 01:05:47;;;;;;;7.83;6.10;;;16.50;99.90;;;;;;5008789;28;20288;-53
2022/09/13 01:08:21;;;;;;;7.30;6.60;;;16.50;99.90;;;;;;4994099;28;20234;-53
2022/09/13 01:10:51;;;;;;;7.70;6.90;;;16.50;99.90;;;;;;5009115;28;20234;-53
2022/09/13 01:13:23;;;;;;;8.50;7.60;;;16.50;99.90;;;;;;4993738;28;20240;-54
2022/09/13 01:15:51;;;;;;;7.63;6.83;;;16.50;99.90;;;;;;4993956;28;20238;-54
2022/09/13 01:18:20;;;;;;;7.53;6.83;;;16.40;99.90;;;;;;4994157;28;20725;-53
2022/09/13 01:21:24;;;;;;;8.10;6.93;;;16.40;99.90;;;;;;4998735;28;20301;-53
2022/09/13 01:24:14;;;;;;;7.73;6.77;;;16.40;99.90;;;;;;5001889;28;20233;-54
2022/09/13 01:27:11;;;;;;;7.47;6.63;;;16.40;99.90;;;;;;5013326;28;20228;-53
2022/09/13 01:30:16;;;;;;;7.60;6.80;;;16.40;99.90;;;;;;5012389;28;20763;-53
2022/09/13 01:33:16;;;;;;;9.13;7.07;;;16.40;99.90;;;;;;5002066;28;20267;-53
2022/09/13 01:35:56;;;;;;;7.80;7.00;;;16.40;99.90;;;;;;5008594;28;20241;-54
2022/09/13 01:38:45;;;;;;;7.80;7.10;;;16.40;99.90;;;;;;4993285;28;20230;-54
2022/09/13 01:41:28;;;;;;;8.33;7.53;;;16.40;99.90;;;;;;4996101;28;20241;-52
2022/09/13 01:44:04;;;;;;;8.67;7.60;;;16.30;99.90;;;;;;4993593;28;20248;-53
2022/09/13 01:46:39;;;;;;;9.67;8.40;;;16.30;99.90;;;;;;4994268;28;20233;-53
2022/09/13 01:49:18;;;;;;;8.40;7.60;;;16.30;99.90;;;;;;4993180;28;20241;-54
2022/09/13 01:51:54;;;;;;;10.30;7.57;;;16.30;99.90;;;;;;5001337;28;20311;-54
2022/09/13 01:54:28;;;;;;;9.60;7.77;;;16.30;99.90;;;;;;5006779;28;20228;-54
2022/09/13 01:57:01;;;;;;;8.47;7.30;;;16.30;99.90;;;;;;5013089;28;20248;-53
2022/09/13 01:59:38;;;;;;;8.97;7.77;;;16.30;99.90;;;;;;5012817;28;20240;-53
2022/09/13 02:02:12;;;;;;;8.90;7.47;;;16.20;99.90;;;;;;5012557;28;20239;-54
2022/09/13 02:04:46;;;;;;;8.93;8.03;;;16.30;99.90;;;;;;5012945;28;20268;-54
2022/09/13 02:07:20;;;;;;;10.47;8.30;;;16.30;99.90;;;;;;4995832;28;20225;-53
2022/09/13 02:09:51;;;;;;;8.40;7.57;;;16.30;99.90;;;;;;4993229;28;20227;-54
2022/09/13 02:12:22;;;;;;;9.57;7.80;;;16.20;99.90;;;;;;4993616;28;20677;-53
2022/09/13 02:14:57;;;;;;;9.40;8.40;;;16.20;99.90;;;;;;4993337;28;20280;-53
2022/09/13 02:17:29;;;;;;;9.37;8.47;;;16.20;99.90;;;;;;4994579;28;20245;-53
2022/09/13 02:20:01;;;;;;;9.23;7.80;;;16.20;99.90;;;;;;4992770;28;20227;-54
2022/09/13 02:22:33;;;;;;;11.33;8.20;;;16.20;99.90;;;;;;5001027;28;20637;-53
2022/09/13 02:25:06;;;;;;;8.50;7.63;;;16.30;99.90;;;;;;5011554;28;20242;-54
2022/09/13 02:27:37;;;;;;;8.17;7.33;;;16.20;99.90;;;;;;5012436;28;20273;-54
2022/09/13 02:30:09;;;;;;;9.83;8.40;;;16.30;99.90;;;;;;5012861;28;20229;-54
2022/09/13 02:32:40;;;;;;;10.70;9.60;;;16.20;99.90;;;;;;5012337;28;20291;-53
2022/09/13 02:35:15;;;;;;;11.43;9.23;;;16.20;99.90;;;;;;5012555;28;20228;-54
2022/09/13 02:37:47;;;;;;;9.50;8.60;;;16.20;99.90;;;;;;4989502;28;20245;-53
2022/09/13 02:40:21;;;;;;;10.07;8.87;;;16.20;99.90;;;;;;4992839;28;20234;-53
2022/09/13 02:42:53;;;;;;;10.97;9.07;;;16.20;99.90;;;;;;4993010;28;20233;-53
2022/09/13 02:45:27;;;;;;;9.90;8.90;;;16.20;99.90;;;;;;5014848;28;20328;-53
2022/09/13 02:47:59;;;;;;;10.83;9.73;;;16.20;99.90;;;;;;5010199;28;20697;-54
2022/09/13 02:50:45;;;;;;;10.33;9.17;;;16.20;99.90;;;;;;4996258;28;20217;-53
2022/09/13 02:53:21;;;;;;;10.50;9.37;;;16.20;99.90;;;;;;5004753;28;20213;-54
2022/09/13 02:55:58;;;;;;;11.53;9.40;;;16.20;99.90;;;;;;4996504;28;20284;-53
2022/09/13 02:58:34;;;;;;;9.53;8.53;;;16.20;99.90;;;;;;4996695;28;20240;-53
2022/09/13 03:01:02;;;;;;;10.70;9.37;;;16.20;99.90;;;;;;4996107;28;20244;-53
2022/09/13 03:03:30;;;;;;;11.17;10.07;;;16.30;99.90;;;;;;4996366;28;20268;-53
2022/09/13 03:06:00;;;;;;;13.07;10.07;;;16.20;99.90;;;;;;4996372;28;20237;-53
2022/09/13 03:08:29;;;;;;;11.40;10.10;;;16.20;99.90;;;;;;4995852;28;20233;-53
2022/09/13 03:11:10;;;;;;;11.53;9.53;;;16.20;99.90;;;;;;4994871;28;20238;-53
2022/09/13 03:14:03;;;;;;;12.23;10.93;;;16.30;99.90;;;;;;4996189;28;20575;-53
2022/09/13 03:16:47;;;;;;;11.23;10.10;;;16.30;99.90;;;;;;5010468;28;20283;-53
2022/09/13 03:19:28;;;;;;;15.30;11.40;;;16.30;99.90;;;;;;4998964;28;20234;-53
2022/09/13 03:22:14;;;;;;;13.13;11.20;;;16.20;99.90;;;;;;5006585;28;20233;-53
2022/09/13 03:24:52;;;;;;;13.53;10.70;;;16.20;99.90;;;;;;5011901;28;20630;-53
2022/09/13 03:27:28;;;;;;;12.83;10.23;;;16.20;99.90;;;;;;5015608;28;20632;-53
2022/09/13 03:30:00;;;;;;;12.00;10.80;;;16.20;99.90;;;;;;5015650;28;20681;-53
2022/09/13 03:32:36;;;;;;;12.93;11.57;;;16.30;99.90;;;;;;5011676;28;20225;-52
2022/09/13 03:35:12;;;;;;;14.83;11.27;;;16.30;99.90;;;;;;5015379;28;20233;-53
2022/09/13 03:37:52;;;;;;;12.67;11.33;;;16.30;99.90;;;;;;4991577;28;20234;-53
2022/09/13 03:40:26;;;;;;;13.03;11.73;;;16.30;99.90;;;;;;4976131;28;20229;-53
2022/09/13 03:43:00;;;;;;;16.67;13.23;;;16.30;99.90;;;;;;4976387;28;20235;-54
2022/09/13 03:45:31;;;;;;;15.63;13.10;;;16.30;99.90;;;;;;4986443;28;20225;-54
2022/09/13 03:48:01;;;;;;;17.07;13.33;;;16.30;99.90;;;;;;4995200;28;20269;-54
2022/09/13 03:50:29;;;;;;;15.40;12.83;;;16.30;99.90;;;;;;4995007;28;20230;-53
2022/09/13 03:53:03;;;;;;;15.30;12.87;;;16.30;99.90;;;;;;5009496;28;20708;-53
2022/09/13 03:55:34;;;;;;;16.10;13.80;;;16.30;99.90;;;;;;5014369;28;20230;-53
2022/09/13 03:58:02;;;;;;;16.17;13.73;;;16.30;99.90;;;;;;5014808;28;20232;-54
2022/09/13 04:00:30;;;;;;;17.80;14.30;;;16.30;99.90;;;;;;5014443;28;20233;-53
2022/09/13 04:02:58;;;;;;;18.03;13.90;;;16.30;99.90;;;;;;5014994;28;20707;-54
2022/09/13 04:05:26;;;;;;;16.80;14.17;;;16.30;99.90;;;;;;5014811;28;20229;-54
2022/09/13 04:07:54;;;;;;;16.80;14.27;;;16.30;99.90;;;;;;5014308;28;20292;-52
2022/09/13 04:10:23;;;;;;;18.93;15.33;;;16.30;99.90;;;;;;5014890;28;20237;-54
2022/09/13 04:12:53;;;;;;;19.13;16.00;;;16.30;99.90;;;;;;5014802;28;20230;-54
2022/09/13 04:15:21;;;;;;;20.30;17.57;;;16.30;99.90;;;;;;5014789;28;20655;-53
2022/09/13 04:17:49;;;;;;;17.43;15.43;;;16.30;99.90;;;;;;5009371;28;20241;-54
2022/09/13 04:20:17;;;;;;;20.47;16.57;;;16.30;99.90;;;;;;4994762;28;20230;-53
2022/09/13 04:22:51;;;;;;;19.30;16.70;;;16.20;99.90;;;;;;5008635;28;20747;-54
2022/09/13 04:25:20;;;;;;;22.83;16.60;;;16.30;99.90;;;;;;5001328;28;20233;-54
2022/09/13 04:27:53;;;;;;;18.73;16.63;;;16.30;99.90;;;;;;4994410;28;20230;-54
2022/09/13 04:30:22;;;;;;;19.63;16.93;;;16.30;99.90;;;;;;5013251;28;20229;-53
2022/09/13 04:32:50;;;;;;;22.40;18.57;;;16.30;99.90;;;;;;5009158;28;20642;-54
2022/09/13 04:35:18;;;;;;;21.13;18.13;;;16.30;99.90;;;;;;4994821;28;20276;-53
2022/09/13 04:37:46;;;;;;;22.00;18.90;;;16.30;99.90;;;;;;4994383;28;20222;-53
2022/09/13 04:40:14;;;;;;;22.63;20.10;;;16.30;99.90;;;;;;4994762;28;20308;-54
2022/09/13 04:42:44;;;;;;;21.53;18.00;;;16.30;99.90;;;;;;4994163;28;20246;-54
2022/09/13 04:45:14;;;;;;;21.30;18.53;;;16.30;99.90;;;;;;4994263;28;20276;-53
2022/09/13 04:47:42;;;;;;;22.23;18.83;;;16.30;99.90;;;;;;4994589;28;20242;-53
2022/09/13 04:50:10;;;;;;;22.57;19.47;;;16.30;99.90;;;;;;4986275;28;20249;-54
2022/09/13 04:52:38;;;;;;;24.47;20.30;;;16.30;99.90;;;;;;5001952;28;20226;-53
2022/09/13 04:55:07;;;;;;;19.83;17.73;;;16.30;99.90;;;;;;5013343;28;20241;-53
2022/09/13 04:57:35;;;;;;;22.40;19.83;;;16.40;99.90;;;;;;5009814;28;20226;-53
2022/09/13 05:00:04;;;;;;;23.93;21.20;;;16.40;99.90;;;;;;4993610;28;20241;-53
2022/09/13 05:02:34;;;;;;;24.50;19.90;;;16.30;99.90;;;;;;4993635;28;20721;-52
2022/09/13 05:05:02;;;;;;;23.47;19.70;;;16.30;99.90;;;;;;4994336;28;20736;-54
2022/09/13 05:07:30;;;;;;;24.07;19.70;;;16.40;99.90;;;;;;4993207;28;20234;-54
2022/09/13 05:09:58;;;;;;;23.07;19.97;;;16.30;99.90;;;;;;4994202;28;20229;-52
2022/09/13 05:12:26;;;;;;;24.63;20.63;;;16.30;99.90;;;;;;4995081;28;20301;-53
2022/09/13 05:14:54;;;;;;;24.33;20.87;;;16.30;99.90;;;;;;4994128;28;20224;-54
2022/09/13 05:17:22;;;;;;;24.57;20.33;;;16.30;99.90;;;;;;4993926;28;20628;-54
2022/09/13 05:19:52;;;;;;;26.20;20.10;;;16.40;99.90;;;;;;4994535;28;20222;-54
2022/09/13 05:22:22;;;;;;;24.57;20.27;;;16.40;99.90;;;;;;5002278;28;20247;-53
2022/09/13 05:24:50;;;;;;;24.33;19.63;;;16.40;99.90;;;;;;5011250;28;20661;-54
2022/09/13 05:27:18;;;;;;;24.57;20.77;;;16.40;99.90;;;;;;5011792;28;20256;-54
2022/09/13 05:29:46;;;;;;;22.53;19.93;;;16.40;99.90;;;;;;4997253;28;20748;-54
2022/09/13 05:32:14;;;;;;;23.87;20.03;;;16.30;99.90;;;;;;4997020;28;20233;-54
2022/09/13 05:34:43;;;;;;;24.83;20.67;;;16.40;99.90;;;;;;4992393;28;20240;-54
2022/09/13 05:37:12;;;;;;;23.00;19.30;;;16.40;99.90;;;;;;4992963;28;20226;-53
2022/09/13 05:39:40;;;;;;;23.50;19.77;;;16.40;99.90;;;;;;5002258;28;20222;-54
2022/09/13 05:42:28;;;;;;;21.73;18.57;;;16.40;99.90;;;;;;4993779;28;20642;-54
2022/09/13 05:44:56;;;;;;;22.93;19.50;;;16.40;99.90;;;;;;5003280;28;20246;-54
2022/09/13 05:47:24;;;;;;;24.13;19.77;;;16.40;99.90;;;;;;5004964;28;20228;-53
2022/09/13 05:49:52;;;;;;;20.90;18.30;;;16.40;99.90;;;;;;5002027;28;20257;-53
2022/09/13 05:52:40;;;;;;;22.17;17.07;;;16.40;99.90;;;;;;5010171;28;20232;-54
2022/09/13 05:55:09;;;;;;;21.87;17.10;;;16.50;99.90;;;;;;4996634;28;20229;-54
2022/09/13 05:57:37;;;;;;;18.33;16.23;;;16.50;99.90;;;;;;5003481;28;20629;-54
2022/09/13 06:00:06;;;;;;;20.67;16.77;;;16.60;99.90;;;;;;5001133;28;20221;-54
2022/09/13 06:02:40;;;;;;;25.10;17.80;;;16.60;99.90;;;;;;4997434;28;20237;-54
2022/09/13 06:05:09;;;;;;;22.47;17.30;;;16.50;99.90;;;;;;5006147;28;20227;-53
2022/09/13 06:07:41;;;;;;;21.70;15.40;;;16.60;99.90;;;;;;5012770;28;20619;-54
2022/09/13 06:10:10;;;;;;;19.00;16.07;;;16.70;99.90;;;;;;5006739;28;20742;-53
2022/09/13 06:12:38;;;;;;;21.03;15.77;;;16.70;99.90;;;;;;5012297;28;20229;-54
2022/09/13 06:15:10;;;;;;;19.73;16.17;;;16.80;99.90;;;;;;5005092;28;20221;-54
2022/09/13 06:17:38;;;;;;;19.53;15.43;;;16.80;99.90;;;;;;5005405;28;20237;-54
2022/09/13 06:20:08;;;;;;;20.17;17.10;;;16.90;99.90;;;;;;5015425;28;20685;-54
2022/09/13 06:22:36;;;;;;;20.90;17.50;;;16.80;99.90;;;;;;4998213;28;20226;-54
2022/09/13 06:25:06;;;;;;;19.33;16.63;;;16.90;99.90;;;;;;5005450;28;20279;-54
2022/09/13 06:27:34;;;;;;;20.77;16.40;;;16.90;99.90;;;;;;5012538;28;20585;-54
2022/09/13 06:30:02;;;;;;;18.77;15.80;;;16.90;99.90;;;;;;4994582;28;20230;-54
2022/09/13 06:32:30;;;;;;;20.70;16.90;;;17.00;99.90;;;;;;4987507;28;20287;-54
2022/09/13 06:34:59;;;;;;;21.07;17.73;;;17.00;99.90;;;;;;4990371;28;20221;-53
2022/09/13 06:37:27;;;;;;;22.17;18.30;;;17.10;99.90;;;;;;4989788;28;20626;-53
2022/09/13 06:39:55;;;;;;;21.23;17.87;;;17.00;99.90;;;;;;4990885;28;20233;-53
2022/09/13 06:42:24;;;;;;;20.77;17.87;;;17.00;99.90;;;;;;4991961;28;20585;-54
2022/09/13 06:44:52;;;;;;;22.50;18.50;;;17.00;99.90;;;;;;4991319;28;20222;-54
2022/09/13 06:47:20;;;;;;;21.67;18.33;;;17.10;99.90;;;;;;4990825;28;20637;-54
2022/09/13 06:49:48;;;;;;;19.90;16.47;;;17.10;99.90;;;;;;4990540;28;20238;-54
2022/09/13 06:52:16;;;;;;;20.03;16.07;;;17.20;99.90;;;;;;4990197;28;20641;-54
2022/09/13 06:54:44;;;;;;;18.67;16.67;;;17.20;99.90;;;;;;4992491;28;20234;-54
2022/09/13 06:57:12;;;;;;;19.67;17.20;;;17.20;99.90;;;;;;4990110;28;20230;-54
2022/09/13 06:59:42;;;;;;;20.47;16.33;;;17.30;99.90;;;;;;4990347;28;20225;-54
2022/09/13 07:02:10;;;;;;;20.37;15.97;;;17.20;99.90;;;;;;4989752;28;20638;-53
2022/09/13 07:04:38;;;;;;;19.73;16.33;;;17.30;99.90;;;;;;4990403;28;20231;-53
2022/09/13 07:07:06;;;;;;;19.83;16.10;;;17.30;99.90;;;;;;4990418;28;20241;-54
2022/09/13 07:09:34;;;;;;;20.30;17.40;;;17.30;99.90;;;;;;4990612;28;20219;-54
2022/09/13 07:12:05;;;;;;;18.20;15.63;;;17.30;99.90;;;;;;4988975;28;20599;-53
2022/09/13 07:14:33;;;;;;;17.87;14.97;;;17.50;99.90;;;;;;4990493;28;20252;-53
2022/09/13 07:17:02;;;;;;;18.40;15.57;;;17.70;99.90;;;;;;4990661;28;20230;-51
2022/09/13 07:19:31;;;;;;;19.10;15.70;;;17.70;99.90;;;;;;4988994;28;20236;-54
2022/09/13 07:21:59;;;;;;;17.23;14.37;;;17.80;99.90;;;;;;4989991;28;21514;-53
2022/09/13 07:24:27;;;;;;;17.77;14.93;;;17.80;99.90;;;;;;4991510;28;20239;-53
2022/09/13 07:26:55;;;;;;;18.50;13.40;;;17.80;99.90;;;;;;4990271;28;20630;-53
2022/09/13 07:29:23;;;;;;;15.50;13.00;;;17.80;99.90;;;;;;4990085;28;20750;-54
2022/09/13 07:31:54;;;;;;;17.37;12.47;;;17.80;99.90;;;;;;4988488;28;20248;-54
2022/09/13 07:34:25;;;;;;;18.27;12.43;;;17.90;99.90;;;;;;4988915;28;20236;-54
2022/09/13 07:36:54;;;;;;;14.77;11.43;;;17.90;99.90;;;;;;4990913;28;20232;-54
2022/09/13 07:39:23;;;;;;;15.07;12.50;;;18.00;99.90;;;;;;4990040;28;20227;-54
2022/09/13 07:41:52;;;;;;;15.97;12.57;;;18.00;99.90;;;;;;4990275;28;20581;-54
2022/09/13 07:44:21;;;;;;;13.33;10.70;;;18.00;99.90;;;;;;4989339;28;20322;-54
2022/09/13 07:46:49;;;;;;;14.93;10.77;;;18.00;99.90;;;;;;4990677;28;20231;-54
2022/09/13 07:49:19;;;;;;;13.53;10.30;;;18.00;99.90;;;;;;4989548;28;20252;-53
2022/09/13 07:51:50;;;;;;;14.43;10.80;;;18.00;99.90;;;;;;4990150;28;20857;-53
2022/09/13 07:54:19;;;;;;;17.70;11.03;;;18.10;99.90;;;;;;4988705;28;20228;-54
2022/09/13 07:56:49;;;;;;;11.67;8.63;;;18.20;99.90;;;;;;4989961;28;20235;-54
2022/09/13 07:59:18;;;;;;;13.17;8.63;;;18.30;99.90;;;;;;4989563;28;20236;-54
2022/09/13 08:01:48;;;;;;;8.93;7.20;;;18.40;99.90;;;;;;4988668;28;20241;-51
2022/09/13 08:04:20;;;;;;;12.53;7.00;;;18.50;99.90;;;;;;4989060;28;20236;-53
2022/09/13 08:06:49;;;;;;;10.90;6.07;;;18.70;99.90;;;;;;4989771;28;20290;-54
2022/09/13 08:09:17;;;;;;;10.20;6.17;;;18.80;99.90;;;;;;4989793;28;20236;-54
2022/09/13 08:11:47;;;;;;;7.70;5.33;;;18.90;99.90;;;;;;4989226;28;20714;-54
2022/09/13 08:14:17;;;;;;;9.50;4.70;;;19.10;99.90;;;;;;4988828;28;20233;-54
2022/09/13 08:16:45;;;;;;;8.00;4.40;;;19.30;99.90;;;;;;4989310;28;20599;-54
2022/09/13 08:19:15;;;;;;;9.00;3.83;;;19.50;99.90;;;;;;4988559;28;20240;-54
2022/09/13 08:21:44;;;;;;;7.40;2.83;;;19.70;99.90;;;;;;4987575;28;20236;-53
2022/09/13 08:24:16;;;;;;;5.67;2.60;;;19.80;99.90;;;;;;4986348;28;20248;-54
2022/09/13 08:26:45;;;;;;;6.20;2.17;;;19.90;99.90;;;;;;4988300;28;20245;-54
2022/09/13 08:29:14;;;;;;;4.63;1.73;;;20.10;99.90;;;;;;4986677;28;20617;-54
2022/09/13 08:31:42;;;;;;;7.23;1.83;;;20.10;99.90;;;;;;4987793;28;20252;-52
2022/09/13 08:34:13;;;;;;;5.83;1.20;;;20.00;99.90;;;;;;4988702;28;20307;-53
2022/09/13 08:36:41;;;;;;;6.97;1.50;;;19.90;99.90;;;;;;4988712;28;20234;-54
2022/09/13 08:39:11;;;;;;;3.77;1.20;;;20.00;99.90;;;;;;4989324;28;20231;-53
2022/09/13 08:42:06;;;;;;;8.93;1.60;;;20.10;99.90;;;;;;4988673;28;20688;-53
2022/09/13 08:44:38;;;;;;;6.87;1.77;;;20.70;99.90;;;;;;4988545;28;20233;-54
2022/09/13 08:47:28;;;;;;;4.00;1.23;;;20.90;99.90;;;;;;4989827;28;20229;-54
2022/09/13 08:50:10;;;;;;;4.03;1.10;;;21.20;99.90;;;;;;4987968;28;20260;-54
2022/09/13 08:52:47;;;;;;;2.80;1.33;;;22.00;99.90;;;;;;4989023;28;20589;-54
2022/09/13 08:55:40;;;;;;;9.60;1.27;;;22.10;99.90;;;;;;4987683;28;20704;-54
2022/09/13 08:58:30;;;;;;;6.13;1.07;;;22.00;99.90;;;;;;4989202;28;20586;-54
2022/09/13 09:01:05;;;;;;;4.57;1.50;;;21.40;99.90;;;;;;4987707;28;20262;-53
2022/09/13 09:03:41;;;;;;;5.07;1.27;;;21.30;99.90;;;;;;4988392;28;20321;-54
2022/09/13 09:06:14;;;;;;;6.17;1.23;;;21.80;99.90;;;;;;4988491;28;20760;-54
2022/09/13 09:08:47;;;;;;;4.90;1.30;;;21.80;99.90;;;;;;4987116;28;20555;-54
2022/09/13 09:11:26;;;;;;;7.13;1.40;;;21.40;99.90;;;;;;4988801;28;20636;-54
2022/09/13 09:14:02;;;;;;;8.33;1.73;;;21.40;99.90;;;;;;4989143;28;20582;-53
2022/09/13 09:16:37;;;;;;;6.97;1.20;;;21.20;99.90;;;;;;4987794;28;20225;-54
2022/09/13 09:19:15;;;;;;;5.37;1.47;;;21.00;99.90;;;;;;4987847;28;20221;-54
2022/09/13 09:21:47;;;;;;;5.20;1.30;;;20.80;99.90;;;;;;4988638;28;20224;-54
2022/09/13 09:24:20;;;;;;;6.00;1.30;;;20.50;99.90;;;;;;4987352;28;20241;-54
2022/09/13 09:26:49;;;;;;;7.07;1.30;;;20.60;99.90;;;;;;4987426;28;20304;-54
2022/09/13 09:29:21;;;;;;;6.17;1.13;;;21.10;99.90;;;;;;4987630;28;20222;-53
2022/09/13 09:32:08;;;;;;;6.50;1.00;;;21.50;99.90;;;;;;4987979;28;20241;-55
2022/09/13 09:34:50;;;;;;;7.77;1.10;;;21.90;99.90;;;;;;4986452;28;20229;-54
2022/09/13 09:37:21;;;;;;;4.70;1.00;;;22.40;99.90;;;;;;4987831;28;20236;-54
2022/09/13 09:39:49;;;;;;;5.83;1.10;;;22.90;99.90;;;;;;4987073;28;20225;-54
2022/09/13 09:42:20;;;;;;;6.93;1.00;;;22.80;99.90;;;;;;4988455;28;20280;-54
2022/09/13 09:44:53;;;;;;;4.43;1.43;;;22.50;99.90;;;;;;4987766;28;20593;-54
2022/09/13 09:47:23;;;;;;;6.83;1.10;;;22.00;99.90;;;;;;4988270;28;20240;-54
2022/09/13 09:50:10;;;;;;;5.87;0.90;;;21.40;99.90;;;;;;4987503;28;20244;-54
2022/09/13 09:52:44;;;;;;;7.33;1.20;;;20.90;99.90;;;;;;4989490;28;20225;-54
2022/09/13 09:55:20;;;;;;;2.57;1.10;;;20.90;99.90;;;;;;4986935;28;20228;-55
2022/09/13 09:57:57;;;;;;;5.90;0.90;;;21.50;99.90;;;;;;4987071;28;20250;-54
2022/09/13 10:00:30;;;;;;;3.10;0.90;;;22.20;99.90;;;;;;4987344;28;20230;-54
2022/09/13 10:03:00;;;;;;;3.07;1.13;;;22.60;99.90;;;;;;4986358;28;20233;-53
2022/09/13 10:05:31;;;;;;;3.33;0.83;;;22.80;99.90;;;;;;4985925;28;20226;-54
2022/09/13 10:08:01;;;;;;;4.90;1.10;;;23.10;99.90;;;;;;4987504;28;20723;-54
2022/09/13 10:10:38;;;;;;;3.57;0.83;;;23.20;99.90;;;;;;4986952;28;20789;-55
2022/09/13 10:13:14;;;;;;;9.23;1.53;;;23.10;99.90;;;;;;4986505;28;20275;-54
2022/09/13 10:15:54;;;;;;;3.27;0.90;;;22.60;99.90;;;;;;4985879;28;20604;-51
2022/09/13 10:18:24;;;;;;;7.37;1.20;;;22.80;99.90;;;;;;4987035;28;20233;-55
2022/09/13 10:21:23;;;;;;;6.00;1.30;;;22.90;99.90;;;;;;4987212;28;20225;-54
2022/09/13 10:23:52;;;;;;;4.67;1.23;;;23.50;99.90;;;;;;4987654;28;20225;-55
2022/09/13 10:26:22;;;;;;;5.47;1.17;;;23.50;99.90;;;;;;4987735;28;20226;-55
2022/09/13 10:28:56;;;;;;;3.63;1.03;;;23.60;99.90;;;;;;4987139;28;20601;-55
2022/09/13 10:31:31;;;;;;;3.43;1.00;;;23.30;99.90;;;;;;4987005;28;20633;-53
2022/09/13 10:34:02;;;;;;;5.77;1.40;;;23.20;99.90;;;;;;4986708;28;20241;-55
2022/09/13 10:36:34;;;;;;;3.73;1.20;;;23.40;99.90;;;;;;4986913;28;20230;-55
2022/09/13 10:39:22;;;;;;;2.77;0.80;;;23.70;99.90;;;;;;4986875;28;20613;-55
2022/09/13 10:41:52;;;;;;;3.97;0.83;;;23.70;99.90;;;;;;4987197;28;20226;-55
2022/09/13 10:44:31;;;;;;;4.03;0.83;;;24.00;99.90;;;;;;4987446;28;20239;-55
2022/09/13 10:47:04;;;;;;;3.93;0.90;;;24.50;99.90;;;;;;4987722;28;20230;-55
2022/09/13 10:49:42;;;;;;;4.87;1.10;;;24.50;99.90;;;;;;4986338;28;20245;-55
2022/09/13 10:52:34;;;;;;;7.00;1.13;;;24.80;99.90;;;;;;4987994;28;20231;-55
2022/09/13 10:55:31;;;;;;;5.13;1.30;;;24.70;99.90;;;;;;4986917;28;20222;-55
2022/09/13 10:58:20;;;;;;;5.23;1.00;;;25.10;99.90;;;;;;4986146;28;20239;-55
2022/09/13 11:01:25;;;;;;;5.20;1.00;;;25.50;99.90;;;;;;4986538;28;20663;-55
2022/09/13 11:04:39;;;;;;;3.20;0.90;;;25.30;99.90;;;;;;4974067;28;20256;-55
2022/09/13 11:07:35;;;;;;;3.10;0.93;;;25.20;99.90;;;;;;4988880;28;20312;-56
2022/09/13 11:10:11;;;;;;;4.07;1.03;;;25.60;99.90;;;;;;4989623;28;20707;-55
2022/09/13 11:12:45;;;;;;;3.77;0.83;;;25.80;99.90;;;;;;4989577;28;20282;-56
2022/09/13 11:15:27;;;;;;;3.87;1.10;;;25.90;99.90;;;;;;4990470;28;20228;-56
2022/09/13 11:18:20;;;;;;;4.43;1.30;;;26.10;99.90;;;;;;4990908;28;20702;-56
2022/09/13 11:20:54;;;;;;;3.77;1.00;;;25.90;99.90;;;;;;4991349;28;20244;-56
2022/09/13 11:23:44;;;;;;;5.20;1.20;;;25.60;99.90;;;;;;4991163;28;20242;-55
2022/09/13 11:26:27;;;;;;;4.17;1.00;;;25.20;99.90;;;;;;4989722;28;20271;-55
2022/09/13 11:29:06;;;;;;;5.63;0.90;;;24.60;99.90;;;;;;4990621;28;20694;-53
2022/09/13 11:31:43;;;;;;;3.77;1.20;;;24.20;99.90;;;;;;4989341;28;20243;-55
2022/09/13 11:34:21;;;;;;;5.90;1.20;;;23.90;99.90;;;;;;4989683;28;20226;-53
2022/09/13 11:37:09;;;;;;;4.77;0.90;;;23.90;99.90;;;;;;4989099;28;20226;-55
2022/09/13 11:39:42;;;;;;;3.73;1.20;;;23.90;99.90;;;;;;4987799;28;21737;-56
2022/09/13 11:42:24;;;;;;;5.70;1.20;;;23.40;99.90;;;;;;4989714;28;20239;-54
2022/09/13 11:45:15;;;;;;;5.87;1.17;;;23.20;99.90;;;;;;4990079;28;20233;-54
2022/09/13 11:48:21;;;;;;;5.87;0.90;;;23.20;99.90;;;;;;4989000;28;20703;-54
2022/09/13 11:50:58;;;;;;;6.10;1.23;;;23.60;99.90;;;;;;4989608;28;20229;-55
2022/09/13 11:53:54;;;;;;;5.17;1.00;;;23.80;99.90;;;;;;4990593;28;20338;-53
2022/09/13 11:56:31;;;;;;;6.40;1.40;;;23.90;99.90;;;;;;4990261;28;20226;-54
2022/09/13 11:59:07;;;;;;;5.03;1.33;;;23.60;99.90;;;;;;4990248;28;20234;-54
2022/09/13 12:01:45;;;;;;;4.77;1.13;;;23.70;99.90;;;;;;4988791;28;20254;-54
2022/09/13 12:04:19;;;;;;;6.97;1.23;;;23.80;99.90;;;;;;4989712;28;20226;-55
2022/09/13 12:06:54;;;;;;;2.97;0.80;;;24.10;99.90;;;;;;4988503;28;20234;-54
2022/09/13 12:09:28;;;;;;;4.50;1.00;;;23.80;99.90;;;;;;4989287;28;20241;-55
2022/09/13 12:12:03;;;;;;;5.40;1.27;;;23.80;99.90;;;;;;4989364;28;20237;-54
2022/09/13 12:14:41;;;;;;;5.60;1.20;;;23.60;99.90;;;;;;4989649;28;20254;-55
2022/09/13 12:17:23;;;;;;;4.53;0.93;;;22.90;99.90;;;;;;4989520;28;20241;-55
2022/09/13 12:19:55;;;;;;;6.87;1.33;;;22.60;99.90;;;;;;4987827;28;20226;-54
2022/09/13 12:22:27;;;;;;;5.17;1.07;;;22.40;99.90;;;;;;4990122;28;20222;-55
2022/09/13 12:25:02;;;;;;;4.07;0.97;;;22.60;99.90;;;;;;4988612;28;20221;-54
2022/09/13 12:27:38;;;;;;;7.17;1.57;;;22.70;99.90;;;;;;4988959;28;20225;-54
2022/09/13 12:30:14;;;;;;;4.40;1.10;;;22.60;99.90;;;;;;4989071;28;20235;-54
2022/09/13 12:32:45;;;;;;;6.57;0.90;;;22.30;99.90;;;;;;4988577;28;20225;-55
2022/09/13 12:35:21;;;;;;;10.07;1.77;;;22.20;99.90;;;;;;4988926;28;20574;-54
2022/09/13 12:38:06;;;;;;;5.47;1.07;;;22.10;99.90;;;;;;4989236;28;20233;-54
2022/09/13 12:40:47;;;;;;;4.83;1.17;;;22.00;99.90;;;;;;4988320;28;20594;-54
2022/09/13 12:43:48;;;;;;;5.97;1.30;;;21.90;99.90;;;;;;4988723;28;20225;-54
2022/09/13 12:46:45;;;;;;;2.77;0.90;;;22.00;99.90;;;;;;4986626;28;20766;-54
2022/09/13 12:49:32;;;;;;;6.50;1.30;;;22.50;99.90;;;;;;4987146;28;20645;-54
2022/09/13 12:52:16;;;;;;;4.87;0.90;;;22.60;99.90;;;;;;4990075;28;20237;-54
2022/09/13 12:55:12;;;;;;;3.50;0.80;;;22.90;99.90;;;;;;4989382;28;21338;-54
2022/09/13 12:58:15;;;;;;;2.80;0.90;;;23.00;99.90;;;;;;4988539;28;20330;-54
2022/09/13 13:00:59;;;;;;;8.07;1.30;;;23.10;99.90;;;;;;4986792;28;20245;-54
2022/09/13 13:03:32;;;;;;;3.97;1.00;;;23.10;99.90;;;;;;4988658;28;20221;-54
2022/09/13 13:06:09;;;;;;;4.60;1.13;;;22.70;99.90;;;;;;4987911;28;20234;-55
2022/09/13 13:08:38;;;;;;;3.93;0.97;;;22.40;99.90;;;;;;4988171;28;20238;-54
2022/09/13 13:11:09;;;;;;;3.70;0.90;;;22.20;99.90;;;;;;4988811;28;20222;-55
2022/09/13 13:13:39;;;;;;;4.53;1.00;;;22.10;99.90;;;;;;4988593;28;20667;-54